Nearby METAR Reports


KSYR - Syracuse, New York, USA
Distance from station: SE 5mi, 8km
Updated: Sun, 25-Jun-2017 12:54pm EDT
Mostly cloudy
Mostly cloudy
 Wind from WSW
Wind: WSW 9 mph , 15 km/h
Temperature: 70°F , 21°C
Dew Point: 52°F , 11°C
Humidity: 53%
Barometer: 29.95 inHg , 1014.2 hPa
Clouds: Mostly cloudy
Visibility: 10 miles , 16 km
Cloud details: Few Clouds 4500 ft
Partly cloudy 8000 ft
Mostly cloudy 10000 ft
2017/06/25 16:54 KSYR 251654Z 24008KT 10SM FEW045 SCT080 BKN100 21/11 A2995 RMK AO2 LTG DSNT NW RAB25E49 SLP138 CB DSNT E AND S AND NW P0000 T02110106 VISNO NW $
KFZY - Fulton, New York, USA
Distance from station: NW 17mi, 27km
Updated: Sun, 25-Jun-2017 1:05pm EDT
Nearby thunderstorm, Mostly cloudy
Nearby thunderstorm, Mostly cloudy
 Wind from W
Wind: W 16 mph , 26 km/h, Gust: 22 mph , 35 km/h
Temperature: 75°F , 24°C
Dew Point: 54°F , 12°C
Humidity: 47%
Barometer: 29.95 inHg , 1014.2 hPa
Summary: Nearby Thunderstorm
Clouds: Mostly cloudy
Visibility: 10 miles , 16 km
Cloud details: Mostly cloudy 10000 ft
2017/06/25 17:05 KFZY 251705Z AUTO 27014G19KT 10SM VCTS BKN100 24/12 A2995 RMK AO2 LTG DSNT W T02390122
 
KRME - Rome/Griffiss Af, New York, USA
Distance from station: E 39mi, 62km
Updated: Sun, 25-Jun-2017 12:53pm EDT
Mostly cloudy
Mostly cloudy
 Wind from W
Wind: W 10 mph , 17 km/h
Temperature: 72°F , 22°C
Dew Point: 54°F , 12°C
Humidity: 53%
Barometer: 29.95 inHg , 1014.2 hPa
Clouds: Mostly cloudy
Visibility: 10 miles , 16 km
Cloud details: Mostly cloudy 10000 ft
2017/06/25 16:53 KRME 251653Z 27009KT 10SM BKN100 22/12 A2995 RMK AO2 SLP140 T02170122
KITH - Ithaca/Tompkins, New York, USA
Distance from station: SSW 51mi, 82km
Updated: Sun, 25-Jun-2017 12:55pm EDT
Mostly cloudy
Mostly cloudy
 Wind from WNW
Wind: WNW 10 mph , 17 km/h
Temperature: 72°F , 22°C
Dew Point: 55°F , 13°C
Humidity: 57%
Barometer: 30.00 inHg , 1015.9 hPa
Clouds: Mostly cloudy
Visibility: 10 miles , 16 km
Cloud details: Mostly cloudy 5000 ft
2017/06/25 16:55 KITH 251655Z 29009KT 10SM BKN050 22/13 A3000
 
KART - Watertown, New York, USA
Distance from station: N 56mi, 91km
Updated: Sun, 25-Jun-2017 12:56pm EDT
Clear
Clear
 Wind from WSW
Wind: WSW 14 mph , 22 km/h, Gust: 24 mph , 39 km/h
Temperature: 70°F , 21°C
Dew Point: 59°F , 15°C
Humidity: 69%
Barometer: 29.93 inHg , 1013.5 hPa
Clouds: Clear
Visibility: 10 miles , 16 km
2017/06/25 16:56 KART 251656Z AUTO 25012G21KT 10SM CLR 21/15 A2993 RMK AO2 SLP130 T02110150 $
KPEO - Penn Yan, New York, USA
Distance from station: SW 58mi, 93km
Updated: Sun, 25-Jun-2017 12:53pm EDT
Partly cloudy
Partly cloudy
 Wind from SW
Wind: SW 9 mph , 15 km/h
Temperature: 73°F , 23°C
Dew Point: 45°F , 7°C
Humidity: 36%
Barometer: 29.97 inHg , 1014.9 hPa
Clouds: Partly cloudy
Visibility: 10 miles , 16 km
Cloud details: Partly cloudy 6000 ft
2017/06/25 16:53 KPEO 251653Z AUTO 22008KT 10SM SCT060 23/07 A2997 RMK AO2 SLP145 T02330072
 
KGTB - Fort Drum/Wheele, New York, USA
Distance from station: NNE 64mi, 102km
Updated: Sun, 25-Jun-2017 12:58pm EDT
Partly cloudy
Partly cloudy
 Wind from WSW
Wind: WSW 15 mph , 24 km/h, Gust: 24 mph , 39 km/h
Temperature: 70°F , 21°C
Dew Point: 55°F , 13°C
Humidity: 60%
Barometer: 29.92 inHg , 1013.2 hPa
Clouds: Partly cloudy
Visibility: 10 miles , 16 km
Cloud details: Partly cloudy 3600 ft
2017/06/25 16:58 KGTB 251658Z AUTO 25013G21KT 10SM SCT036 21/13 A2992 RMK AO2 PK WND 23027/44 SLP131 T02120127 $
CWQP - Point Petre (mar, Ontario, Canada
Distance from station: NW 67mi, 107km
Updated: Sun, 25-Jun-2017 1:00pm EDT

 Wind from WSW
Wind: WSW 15 mph , 24 km/h
Temperature: 64°F , 18°C
Dew Point: 57°F , 14°C
Humidity: 78%
2017/06/25 17:00 CWQP 251700Z AUTO 24013KT 18/14 RMK AO1 PK WND 23020/1600 SLP134 T01790140 58004
 
KBGM - Binghamton, New York, USA
Distance from station: S 67mi, 107km
Updated: Sun, 25-Jun-2017 12:53pm EDT
Few Clouds
Few Clouds
 Wind from WSW
Wind: WSW 15 mph , 24 km/h, Gust: 23 mph , 37 km/h
Temperature: 72°F , 22°C
Dew Point: 50°F , 10°C
Humidity: 47%
Barometer: 29.99 inHg , 1015.6 hPa
Clouds: Few Clouds
Visibility: 10 miles , 16 km
Cloud details: Few Clouds 6000 ft
Few Clouds 10000 ft
2017/06/25 16:53 KBGM 251653Z 25013G20KT 10SM FEW060 FEW100 22/10 A2999
CYGK - Kingston Arpt (m, Ontario, Canada
Distance from station: NNW 75mi, 121km
Updated: Sun, 25-Jun-2017 1:00pm EDT
Partly cloudy
Partly cloudy
 Wind from SW
Wind: SW 21 mph , 33 km/h, Gust: 29 mph , 46 km/h
Temperature: 72°F , 22°C
Dew Point: 55°F , 13°C
Humidity: 57%
Barometer: 29.89 inHg , 1012.2 hPa
Clouds: Partly cloudy
Visibility: 15 miles , 24 km
Cloud details: Partly cloudy 3300 ft
Partly cloudy 20000 ft
2017/06/25 17:00 CYGK 251700Z 22018G25KT 15SM SCT033TCU SCT200 22/13 A2989 RMK TCU3CI1 CI TR SLP125 DENSITY ALT 1200FT